Terminal Aerodrome Forecast
Issued by NWS Charleston, WV

Current Version | Previous Version | Graphics & Text | Print | Product List | Glossary On
Versions: 1 2 3 4 5 6 7 8 9 10 11 12 13 14 15 16 17 18 19 20 21
688
FTUS41 KRLX 111759
TAFHTS
TAF
KHTS 111759Z 1118/1218 29007KT P6SM SCT045 SCT080
      TEMPO 1118/1121 BKN045
     FM112300 VRB02KT P6SM SCT080
     FM120800 00000KT P6SM BKN080
     FM121400 24005KT 5SM -SN OVC025=

USA.gov is the U.S. government's official web portal to all federal, state and local government web resources and services.